sensor_id;sensor_type;location;lat;lon;timestamp;pressure;altitude;pressure_sealevel;temperature;humidity
21276;BME280;36472;52.170;20.884;2024-03-02T00:01:35;100167.69;;;8.79;87.34
21276;BME280;36472;52.170;20.884;2024-03-02T00:04:07;100166.59;;;8.84;87.36
21276;BME280;36472;52.170;20.884;2024-03-02T00:06:37;100152.84;;;8.80;87.65
21276;BME280;36472;52.170;20.884;2024-03-02T00:09:10;100150.31;;;8.78;87.39
21276;BME280;36472;52.170;20.884;2024-03-02T00:11:40;100154.06;;;8.89;87.26
21276;BME280;36472;52.170;20.884;2024-03-02T00:14:12;100160.53;;;8.83;87.39
21276;BME280;36472;52.170;20.884;2024-03-02T00:16:41;100159.97;;;8.78;87.53
21276;BME280;36472;52.170;20.884;2024-03-02T00:19:13;100155.75;;;8.75;87.54
21276;BME280;36472;52.170;20.884;2024-03-02T00:21:41;100155.66;;;8.77;87.68
21276;BME280;36472;52.170;20.884;2024-03-02T00:24:20;100155.84;;;8.74;87.98
21276;BME280;36472;52.170;20.884;2024-03-02T00:26:50;100157.97;;;8.67;88.09
21276;BME280;36472;52.170;20.884;2024-03-02T00:29:19;100144.59;;;8.72;87.93
21276;BME280;36472;52.170;20.884;2024-03-02T00:31:49;100147.03;;;8.75;87.43
21276;BME280;36472;52.170;20.884;2024-03-02T00:34:19;100142.72;;;8.74;87.90
21276;BME280;36472;52.170;20.884;2024-03-02T00:36:49;100138.91;;;8.65;88.25
21276;BME280;36472;52.170;20.884;2024-03-02T00:39:19;100136.75;;;8.72;87.63
21276;BME280;36472;52.170;20.884;2024-03-02T00:41:48;100148.16;;;8.71;87.93
21276;BME280;36472;52.170;20.884;2024-03-02T00:44:25;100147.59;;;8.66;88.15
21276;BME280;36472;52.170;20.884;2024-03-02T00:46:58;100151.31;;;8.47;89.19
21276;BME280;36472;52.170;20.884;2024-03-02T00:49:30;100149.84;;;8.43;89.15
21276;BME280;36472;52.170;20.884;2024-03-02T00:51:59;100145.34;;;8.45;89.22
21276;BME280;36472;52.170;20.884;2024-03-02T00:54:29;100149.09;;;8.55;89.14
21276;BME280;36472;52.170;20.884;2024-03-02T00:56:58;100156.59;;;8.61;88.70
21276;BME280;36472;52.170;20.884;2024-03-02T00:59:28;100154.25;;;8.57;88.83
21276;BME280;36472;52.170;20.884;2024-03-02T01:01:57;100149.56;;;8.48;89.01
21276;BME280;36472;52.170;20.884;2024-03-02T01:04:26;100142.28;;;8.53;88.83
21276;BME280;36472;52.170;20.884;2024-03-02T01:06:57;100142.19;;;8.54;88.76
21276;BME280;36472;52.170;20.884;2024-03-02T01:09:27;100144.22;;;8.64;88.20
21276;BME280;36472;52.170;20.884;2024-03-02T01:11:56;100143.38;;;8.49;88.64
21276;BME280;36472;52.170;20.884;2024-03-02T01:14:25;100137.22;;;8.50;88.58
21276;BME280;36472;52.170;20.884;2024-03-02T01:16:54;100145.91;;;8.50;88.37
21276;BME280;36472;52.170;20.884;2024-03-02T01:19:24;100132.16;;;8.47;88.40
21276;BME280;36472;52.170;20.884;2024-03-02T01:21:53;100145.16;;;8.48;88.34
21276;BME280;36472;52.170;20.884;2024-03-02T01:24:26;100135.22;;;8.39;88.93
21276;BME280;36472;52.170;20.884;2024-03-02T01:26:55;100139.38;;;8.43;88.68
21276;BME280;36472;52.170;20.884;2024-03-02T01:29:25;100128.88;;;8.29;89.28
21276;BME280;36472;52.170;20.884;2024-03-02T01:31:55;100138.59;;;8.41;88.48
21276;BME280;36472;52.170;20.884;2024-03-02T01:34:25;100135.03;;;8.28;89.21
21276;BME280;36472;52.170;20.884;2024-03-02T01:36:56;100127.00;;;8.31;89.41
21276;BME280;36472;52.170;20.884;2024-03-02T01:39:27;100121.38;;;8.22;89.51
21276;BME280;36472;52.170;20.884;2024-03-02T01:41:56;100115.47;;;8.19;89.51
21276;BME280;36472;52.170;20.884;2024-03-02T01:44:25;100121.72;;;8.16;89.81
21276;BME280;36472;52.170;20.884;2024-03-02T01:46:55;100110.97;;;8.21;89.91
21276;BME280;36472;52.170;20.884;2024-03-02T01:49:26;100108.28;;;8.22;90.04
21276;BME280;36472;52.170;20.884;2024-03-02T01:51:55;100115.28;;;8.22;89.71
21276;BME280;36472;52.170;20.884;2024-03-02T01:54:24;100107.34;;;8.23;89.41
21276;BME280;36472;52.170;20.884;2024-03-02T01:56:57;100113.03;;;8.16;89.57
21276;BME280;36472;52.170;20.884;2024-03-02T01:59:26;100112.28;;;8.28;89.65
21276;BME280;36472;52.170;20.884;2024-03-02T02:01:56;100113.69;;;8.19;89.96
21276;BME280;36472;52.170;20.884;2024-03-02T02:04:25;100113.31;;;8.26;89.71
21276;BME280;36472;52.170;20.884;2024-03-02T02:06:55;100116.50;;;8.31;89.36
21276;BME280;36472;52.170;20.884;2024-03-02T02:09:25;100114.91;;;8.14;89.64
21276;BME280;36472;52.170;20.884;2024-03-02T02:11:56;100120.31;;;8.11;90.36
21276;BME280;36472;52.170;20.884;2024-03-02T02:14:25;100112.94;;;8.03;90.69
21276;BME280;36472;52.170;20.884;2024-03-02T02:16:54;100118.44;;;8.13;90.30
21276;BME280;36472;52.170;20.884;2024-03-02T02:19:23;100108.72;;;8.00;90.93
21276;BME280;36472;52.170;20.884;2024-03-02T02:21:53;100111.63;;;8.10;90.60
21276;BME280;36472;52.170;20.884;2024-03-02T02:24:23;100110.09;;;8.06;90.50
21276;BME280;36472;52.170;20.884;2024-03-02T02:26:51;100102.47;;;8.03;90.58
21276;BME280;36472;52.170;20.884;2024-03-02T02:29:21;100097.31;;;8.01;90.84
21276;BME280;36472;52.170;20.884;2024-03-02T02:31:52;100103.47;;;7.86;91.38
21276;BME280;36472;52.170;20.884;2024-03-02T02:34:22;100101.91;;;7.98;91.31
21276;BME280;36472;52.170;20.884;2024-03-02T02:36:53;100093.50;;;8.07;90.41
21276;BME280;36472;52.170;20.884;2024-03-02T02:39:22;100090.22;;;8.03;90.73
21276;BME280;36472;52.170;20.884;2024-03-02T02:41:52;100096.66;;;7.98;90.87
21276;BME280;36472;52.170;20.884;2024-03-02T02:44:25;100087.66;;;7.88;91.20
21276;BME280;36472;52.170;20.884;2024-03-02T02:46:56;100089.91;;;7.94;91.06
21276;BME280;36472;52.170;20.884;2024-03-02T02:49:26;100094.25;;;7.79;91.54
21276;BME280;36472;52.170;20.884;2024-03-02T02:51:56;100093.34;;;7.80;91.73
21276;BME280;36472;52.170;20.884;2024-03-02T02:54:25;100092.53;;;7.94;91.72
21276;BME280;36472;52.170;20.884;2024-03-02T02:56:54;100090.09;;;7.91;91.50
21276;BME280;36472;52.170;20.884;2024-03-02T02:59:23;100091.78;;;7.92;91.49
21276;BME280;36472;52.170;20.884;2024-03-02T03:01:52;100083.84;;;7.93;91.23
21276;BME280;36472;52.170;20.884;2024-03-02T03:04:21;100084.28;;;7.85;91.38
21276;BME280;36472;52.170;20.884;2024-03-02T03:06:52;100079.34;;;7.81;91.82
21276;BME280;36472;52.170;20.884;2024-03-02T03:09:24;100079.59;;;7.76;91.86
21276;BME280;36472;52.170;20.884;2024-03-02T03:11:53;100080.91;;;7.83;91.70
21276;BME280;36472;52.170;20.884;2024-03-02T03:14:22;100079.81;;;7.88;91.17
21276;BME280;36472;52.170;20.884;2024-03-02T03:16:52;100083.44;;;7.85;91.13
21276;BME280;36472;52.170;20.884;2024-03-02T03:19:21;100080.66;;;7.88;91.08
21276;BME280;36472;52.170;20.884;2024-03-02T03:21:50;100077.88;;;7.91;90.94
21276;BME280;36472;52.170;20.884;2024-03-02T03:24:20;100079.81;;;7.88;90.73
21276;BME280;36472;52.170;20.884;2024-03-02T03:26:50;100081.09;;;7.80;90.93
21276;BME280;36472;52.170;20.884;2024-03-02T03:29:19;100080.00;;;7.84;91.03
21276;BME280;36472;52.170;20.884;2024-03-02T03:31:48;100081.09;;;7.80;90.94
21276;BME280;36472;52.170;20.884;2024-03-02T03:34:18;100083.78;;;7.79;91.25
21276;BME280;36472;52.170;20.884;2024-03-02T03:36:47;100084.84;;;7.76;90.85
21276;BME280;36472;52.170;20.884;2024-03-02T03:39:16;100082.78;;;7.81;90.92
21276;BME280;36472;52.170;20.884;2024-03-02T03:41:45;100089.50;;;7.85;91.05
21276;BME280;36472;52.170;20.884;2024-03-02T03:44:16;100085.56;;;7.78;91.57
21276;BME280;36472;52.170;20.884;2024-03-02T03:46:45;100079.03;;;7.85;90.93
21276;BME280;36472;52.170;20.884;2024-03-02T03:49:14;100074.09;;;7.81;91.17
21276;BME280;36472;52.170;20.884;2024-03-02T03:51:43;100072.88;;;7.72;91.47
21276;BME280;36472;52.170;20.884;2024-03-02T03:54:12;100074.72;;;7.70;91.51
21276;BME280;36472;52.170;20.884;2024-03-02T03:56:41;100076.66;;;7.66;91.95
21276;BME280;36472;52.170;20.884;2024-03-02T03:59:10;100072.91;;;7.56;92.56
21276;BME280;36472;52.170;20.884;2024-03-02T04:01:42;100076.28;;;7.58;92.42
21276;BME280;36472;52.170;20.884;2024-03-02T04:04:11;100078.63;;;7.63;92.67
21276;BME280;36472;52.170;20.884;2024-03-02T04:06:40;100083.03;;;7.62;92.26
21276;BME280;36472;52.170;20.884;2024-03-02T04:09:09;100074.28;;;7.47;92.77
21276;BME280;36472;52.170;20.884;2024-03-02T04:11:38;100079.69;;;7.44;93.02
21276;BME280;36472;52.170;20.884;2024-03-02T04:14:08;100089.06;;;7.48;93.38
21276;BME280;36472;52.170;20.884;2024-03-02T04:16:37;100092.59;;;7.47;93.42
21276;BME280;36472;52.170;20.884;2024-03-02T04:19:08;100085.84;;;7.43;93.32
21276;BME280;36472;52.170;20.884;2024-03-02T04:21:37;100084.66;;;7.49;93.29
21276;BME280;36472;52.170;20.884;2024-03-02T04:24:06;100087.75;;;7.56;93.10
21276;BME280;36472;52.170;20.884;2024-03-02T04:26:35;100084.75;;;7.47;92.78
21276;BME280;36472;52.170;20.884;2024-03-02T04:29:05;100083.41;;;7.40;93.55
21276;BME280;36472;52.170;20.884;2024-03-02T04:31:34;100089.22;;;7.45;93.63
21276;BME280;36472;52.170;20.884;2024-03-02T04:34:03;100095.38;;;7.44;93.39
21276;BME280;36472;52.170;20.884;2024-03-02T04:36:33;100080.72;;;7.42;93.55
21276;BME280;36472;52.170;20.884;2024-03-02T04:39:03;100080.97;;;7.37;93.58
21276;BME280;36472;52.170;20.884;2024-03-02T04:41:32;100080.72;;;7.42;93.65
21276;BME280;36472;52.170;20.884;2024-03-02T04:44:01;100083.09;;;7.30;93.72
21276;BME280;36472;52.170;20.884;2024-03-02T04:51:02;100085.00;;;7.43;93.04
21276;BME280;36472;52.170;20.884;2024-03-02T04:53:32;100070.00;;;7.30;93.25
21276;BME280;36472;52.170;20.884;2024-03-02T04:56:05;100072.28;;;7.37;93.32
21276;BME280;36472;52.170;20.884;2024-03-02T04:59:06;100094.22;;;7.34;93.56
21276;BME280;36472;52.170;20.884;2024-03-02T05:01:36;100083.09;;;7.30;93.96
21276;BME280;36472;52.170;20.884;2024-03-02T05:04:05;100089.84;;;7.35;93.63
21276;BME280;36472;52.170;20.884;2024-03-02T05:06:34;100092.84;;;7.43;93.36
21276;BME280;36472;52.170;20.884;2024-03-02T05:09:04;100088.47;;;7.27;93.44
21276;BME280;36472;52.170;20.884;2024-03-02T05:11:35;100098.44;;;7.21;94.07
21276;BME280;36472;52.170;20.884;2024-03-02T05:14:37;100096.75;;;7.36;93.61
21276;BME280;36472;52.170;20.884;2024-03-02T05:17:05;100104.25;;;7.42;93.50
21276;BME280;36472;52.170;20.884;2024-03-02T05:19:34;100103.75;;;7.35;93.62
21276;BME280;36472;52.170;20.884;2024-03-02T05:22:04;100106.69;;;7.29;94.02
21276;BME280;36472;52.170;20.884;2024-03-02T05:24:35;100118.59;;;7.35;93.84
21276;BME280;36472;52.170;20.884;2024-03-02T05:27:04;100109.22;;;7.30;94.03
21276;BME280;36472;52.170;20.884;2024-03-02T05:29:35;100110.84;;;7.33;94.01
21276;BME280;36472;52.170;20.884;2024-03-02T05:32:04;100113.78;;;7.27;93.93
21276;BME280;36472;52.170;20.884;2024-03-02T05:34:34;100124.59;;;7.37;93.80
21276;BME280;36472;52.170;20.884;2024-03-02T05:37:03;100112.53;;;7.18;94.46
21276;BME280;36472;52.170;20.884;2024-03-02T05:39:37;100121.97;;;7.37;94.11
21276;BME280;36472;52.170;20.884;2024-03-02T05:42:06;100119.53;;;7.34;93.92
21276;BME280;36472;52.170;20.884;2024-03-02T05:44:35;100127.13;;;7.38;94.13
21276;BME280;36472;52.170;20.884;2024-03-02T05:47:05;100128.44;;;7.45;93.75
21276;BME280;36472;52.170;20.884;2024-03-02T05:49:36;100136.38;;;7.44;93.30
21276;BME280;36472;52.170;20.884;2024-03-02T05:52:06;100128.84;;;7.38;93.56
21276;BME280;36472;52.170;20.884;2024-03-02T05:54:37;100126.53;;;7.33;94.05
21276;BME280;36472;52.170;20.884;2024-03-02T05:57:06;100143.72;;;7.37;93.76
21276;BME280;36472;52.170;20.884;2024-03-02T05:59:56;100134.00;;;7.39;94.23
21276;BME280;36472;52.170;20.884;2024-03-02T06:02:26;100140.44;;;7.34;93.97
21276;BME280;36472;52.170;20.884;2024-03-02T06:04:56;100130.72;;;7.36;94.12
21276;BME280;36472;52.170;20.884;2024-03-02T06:07:25;100140.69;;;7.45;93.82
21276;BME280;36472;52.170;20.884;2024-03-02T06:09:56;100140.22;;;7.53;93.83
21276;BME280;36472;52.170;20.884;2024-03-02T06:12:25;100132.47;;;7.51;93.58
21276;BME280;36472;52.170;20.884;2024-03-02T06:14:54;100150.38;;;7.43;93.88
21276;BME280;36472;52.170;20.884;2024-03-02T06:17:23;100146.59;;;7.48;94.20
21276;BME280;36472;52.170;20.884;2024-03-02T06:19:52;100149.50;;;7.58;93.59
21276;BME280;36472;52.170;20.884;2024-03-02T06:22:21;100152.56;;;7.51;93.31
21276;BME280;36472;52.170;20.884;2024-03-02T06:24:52;100159.88;;;7.60;93.60
21276;BME280;36472;52.170;20.884;2024-03-02T06:27:23;100149.50;;;7.58;93.31
21276;BME280;36472;52.170;20.884;2024-03-02T06:29:52;100145.72;;;7.64;93.15
21276;BME280;36472;52.170;20.884;2024-03-02T06:32:22;100149.50;;;7.58;93.48
21276;BME280;36472;52.170;20.884;2024-03-02T06:34:52;100162.50;;;7.60;93.74
21276;BME280;36472;52.170;20.884;2024-03-02T06:37:24;100167.81;;;7.58;93.94
21276;BME280;36472;52.170;20.884;2024-03-02T06:39:53;100172.63;;;7.66;93.71
21276;BME280;36472;52.170;20.884;2024-03-02T06:42:24;100166.81;;;7.61;93.92
21276;BME280;36472;52.170;20.884;2024-03-02T06:44:53;100161.81;;;7.72;93.63
21276;BME280;36472;52.170;20.884;2024-03-02T06:47:22;100165.34;;;7.71;93.84
21276;BME280;36472;52.170;20.884;2024-03-02T06:49:51;100156.03;;;7.81;93.29
21276;BME280;36472;52.170;20.884;2024-03-02T06:52:21;100151.81;;;7.79;93.37
21276;BME280;36472;52.170;20.884;2024-03-02T06:54:51;100158.81;;;7.78;93.31
21276;BME280;36472;52.170;20.884;2024-03-02T06:57:21;100167.75;;;7.90;93.07
21276;BME280;36472;52.170;20.884;2024-03-02T06:59:52;100170.94;;;7.95;93.14
21276;BME280;36472;52.170;20.884;2024-03-02T07:02:22;100153.00;;;7.89;92.79
21276;BME280;36472;52.170;20.884;2024-03-02T07:04:53;100162.34;;;7.93;92.85
21276;BME280;36472;52.170;20.884;2024-03-02T07:07:22;100151.66;;;7.82;93.03
21276;BME280;36472;52.170;20.884;2024-03-02T07:09:51;100163.56;;;7.88;93.50
21276;BME280;36472;52.170;20.884;2024-03-02T07:12:19;100163.75;;;7.99;93.24
21276;BME280;36472;52.170;20.884;2024-03-02T07:19:21;100164.97;;;7.93;93.48
21276;BME280;36472;52.170;20.884;2024-03-02T07:21:50;100172.72;;;7.95;93.17
21276;BME280;36472;52.170;20.884;2024-03-02T07:24:20;100170.84;;;7.97;93.32
21276;BME280;36472;52.170;20.884;2024-03-02T07:26:49;100172.25;;;8.02;92.90
21276;BME280;36472;52.170;20.884;2024-03-02T07:29:21;100173.50;;;8.11;92.40
21276;BME280;36472;52.170;20.884;2024-03-02T07:31:51;100175.84;;;8.16;92.24
21276;BME280;36472;52.170;20.884;2024-03-02T07:38:57;100172.97;;;8.20;92.03
21276;BME280;36472;52.170;20.884;2024-03-02T07:41:26;100157.91;;;8.10;91.62
21276;BME280;36472;52.170;20.884;2024-03-02T07:43:55;100178.66;;;8.13;92.28
21276;BME280;36472;52.170;20.884;2024-03-02T07:46:27;100187.16;;;8.16;92.28
21276;BME280;36472;52.170;20.884;2024-03-02T07:48:56;100175.31;;;8.25;91.99
21276;BME280;36472;52.170;20.884;2024-03-02T07:51:25;100187.03;;;8.34;91.86
21276;BME280;36472;52.170;20.884;2024-03-02T07:53:54;100211.91;;;8.41;91.11
21276;BME280;36472;52.170;20.884;2024-03-02T07:56:25;100191.97;;;8.38;90.97
21276;BME280;36472;52.170;20.884;2024-03-02T07:58:54;100201.41;;;8.27;91.17
21276;BME280;36472;52.170;20.884;2024-03-02T08:01:25;100203.94;;;8.28;91.40
21276;BME280;36472;52.170;20.884;2024-03-02T08:03:54;100210.38;;;8.37;91.06
21276;BME280;36472;52.170;20.884;2024-03-02T08:06:27;100196.06;;;8.44;90.75
21276;BME280;36472;52.170;20.884;2024-03-02T08:08:57;100202.97;;;8.45;90.51
21276;BME280;36472;52.170;20.884;2024-03-02T08:11:28;100201.78;;;8.51;90.56
21276;BME280;36472;52.170;20.884;2024-03-02T08:13:58;100182.97;;;8.58;90.37
21276;BME280;36472;52.170;20.884;2024-03-02T08:16:28;100188.19;;;8.44;90.64
21276;BME280;36472;52.170;20.884;2024-03-02T08:18:57;100191.56;;;8.60;90.27
21276;BME280;36472;52.170;20.884;2024-03-02T08:21:26;100191.94;;;8.69;89.85
21276;BME280;36472;52.170;20.884;2024-03-02T08:23:58;100186.97;;;8.50;90.36
21276;BME280;36472;52.170;20.884;2024-03-02T08:26:29;100186.81;;;8.67;90.05
21276;BME280;36472;52.170;20.884;2024-03-02T08:28:59;100192.13;;;8.66;89.70
21276;BME280;36472;52.170;20.884;2024-03-02T08:31:29;100186.34;;;8.75;89.79
21276;BME280;36472;52.170;20.884;2024-03-02T08:33:58;100199.06;;;8.81;89.77
21276;BME280;36472;52.170;20.884;2024-03-02T08:36:28;100194.03;;;8.78;89.71
21276;BME280;36472;52.170;20.884;2024-03-02T08:38:57;100203.66;;;8.77;89.32
21276;BME280;36472;52.170;20.884;2024-03-02T08:41:27;100213.00;;;8.67;89.66
21276;BME280;36472;52.170;20.884;2024-03-02T08:43:57;100203.91;;;8.58;89.87
21276;BME280;36472;52.170;20.884;2024-03-02T08:46:26;100214.22;;;8.76;89.82
21276;BME280;36472;52.170;20.884;2024-03-02T08:48:55;100207.47;;;8.86;89.30
21276;BME280;36472;52.170;20.884;2024-03-02T08:51:26;100202.16;;;8.88;88.99
21276;BME280;36472;52.170;20.884;2024-03-02T08:53:55;100200.19;;;8.91;89.09
21276;BME280;36472;52.170;20.884;2024-03-02T08:56:25;100202.44;;;8.83;88.93
21276;BME280;36472;52.170;20.884;2024-03-02T08:58:55;100201.69;;;8.95;88.85
21276;BME280;36472;52.170;20.884;2024-03-02T09:01:24;100200.94;;;9.08;88.65
21276;BME280;36472;52.170;20.884;2024-03-02T09:03:55;100209.72;;;9.07;88.61
21276;BME280;36472;52.170;20.884;2024-03-02T09:06:24;100217.56;;;9.07;88.34
21276;BME280;36472;52.170;20.884;2024-03-02T09:08:53;100220.69;;;8.99;88.35
21276;BME280;36472;52.170;20.884;2024-03-02T09:11:23;100206.75;;;8.98;88.66
21276;BME280;36472;52.170;20.884;2024-03-02T09:13:54;100209.72;;;9.07;88.63
21276;BME280;36472;52.170;20.884;2024-03-02T09:16:24;100206.34;;;9.05;88.05
21276;BME280;36472;52.170;20.884;2024-03-02T09:18:58;100193.81;;;9.10;87.95
21276;BME280;36472;52.170;20.884;2024-03-02T09:21:28;100207.84;;;9.23;87.72
21276;BME280;36472;52.170;20.884;2024-03-02T09:23:58;100208.97;;;9.19;87.71
21276;BME280;36472;52.170;20.884;2024-03-02T09:26:27;100206.69;;;9.27;87.58
21276;BME280;36472;52.170;20.884;2024-03-02T09:28:57;100201.84;;;9.21;87.53
21276;BME280;36472;52.170;20.884;2024-03-02T09:31:26;100208.00;;;9.34;87.17
21276;BME280;36472;52.170;20.884;2024-03-02T09:33:56;100208.13;;;9.18;87.46
21276;BME280;36472;52.170;20.884;2024-03-02T09:36:25;100211.38;;;9.36;87.05
21276;BME280;36472;52.170;20.884;2024-03-02T09:38:54;100204.28;;;9.24;86.96
21276;BME280;36472;52.170;20.884;2024-03-02T09:41:24;100206.97;;;9.37;86.97
21276;BME280;36472;52.170;20.884;2024-03-02T09:43:56;100184.13;;;9.25;86.64
21276;BME280;36472;52.170;20.884;2024-03-02T10:00:10;100211.31;;;9.51;86.03
21276;BME280;36472;52.170;20.884;2024-03-02T10:02:43;100202.06;;;9.45;86.21
21276;BME280;36472;52.170;20.884;2024-03-02T10:05:12;100207.03;;;9.50;86.06
21276;BME280;36472;52.170;20.884;2024-03-02T10:07:41;100201.88;;;9.48;86.06
21276;BME280;36472;52.170;20.884;2024-03-02T10:10:14;100202.09;;;9.72;85.81
21276;BME280;36472;52.170;20.884;2024-03-02T10:12:44;100204.44;;;9.77;85.41
21276;BME280;36472;52.170;20.884;2024-03-02T10:15:26;100198.75;;;9.83;85.16
21276;BME280;36472;52.170;20.884;2024-03-02T10:17:55;100198.16;;;9.92;84.62
21276;BME280;36472;52.170;20.884;2024-03-02T10:20:26;100193.66;;;9.95;84.30
21276;BME280;36472;52.170;20.884;2024-03-02T10:23:10;100191.38;;;10.03;83.86
21276;BME280;36472;52.170;20.884;2024-03-02T10:25:43;100190.31;;;10.05;83.64
21276;BME280;36472;52.170;20.884;2024-03-02T10:28:24;100189.78;;;10.00;83.57
21276;BME280;36472;52.170;20.884;2024-03-02T10:30:58;100194.59;;;9.93;83.88
21276;BME280;36472;52.170;20.884;2024-03-02T10:33:28;100189.59;;;10.16;83.38
21276;BME280;36472;52.170;20.884;2024-03-02T10:35:57;100198.84;;;10.22;82.79
21276;BME280;36472;52.170;20.884;2024-03-02T10:38:26;100194.34;;;10.24;83.01
21276;BME280;36472;52.170;20.884;2024-03-02T10:40:57;100192.44;;;10.26;82.40
21276;BME280;36472;52.170;20.884;2024-03-02T10:43:27;100189.13;;;10.37;82.85
21276;BME280;36472;52.170;20.884;2024-03-02T10:45:58;100183.66;;;10.40;82.67
21276;BME280;36472;52.170;20.884;2024-03-02T10:48:28;100179.38;;;10.64;81.71
21276;BME280;36472;52.170;20.884;2024-03-02T10:50:58;100176.41;;;10.82;81.26
21276;BME280;36472;52.170;20.884;2024-03-02T10:53:29;100181.63;;;10.95;80.87
21276;BME280;36472;52.170;20.884;2024-03-02T10:56:00;100187.72;;;11.08;80.53
21276;BME280;36472;52.170;20.884;2024-03-02T10:58:33;100177.81;;;11.12;79.45
21276;BME280;36472;52.170;20.884;2024-03-02T11:01:07;100160.59;;;10.95;79.46
21276;BME280;36472;52.170;20.884;2024-03-02T11:03:38;100187.38;;;11.13;78.76
21276;BME280;36472;52.170;20.884;2024-03-02T11:06:09;100173.72;;;11.08;79.11
21276;BME280;36472;52.170;20.884;2024-03-02T11:08:41;100182.25;;;11.11;79.11
21276;BME280;36472;52.170;20.884;2024-03-02T11:11:21;100177.38;;;11.18;78.39
21276;BME280;36472;52.170;20.884;2024-03-02T11:13:55;100169.81;;;11.13;78.43
21276;BME280;36472;52.170;20.884;2024-03-02T11:16:37;100179.94;;;11.07;78.23
21276;BME280;36472;52.170;20.884;2024-03-02T11:19:12;100167.19;;;11.13;78.72
21276;BME280;36472;52.170;20.884;2024-03-02T11:26:18;100163.81;;;11.11;78.86
21276;BME280;36472;52.170;20.884;2024-03-02T11:28:47;100165.94;;;11.19;78.43
21276;BME280;36472;52.170;20.884;2024-03-02T11:31:16;100162.78;;;11.14;78.56
21276;BME280;36472;52.170;20.884;2024-03-02T11:33:47;100163.81;;;11.11;78.29
21276;BME280;36472;52.170;20.884;2024-03-02T11:36:17;100166.66;;;11.21;78.60
21276;BME280;36472;52.170;20.884;2024-03-02T11:38:46;100164.31;;;11.29;78.18
21276;BME280;36472;52.170;20.884;2024-03-02T11:41:19;100157.75;;;11.35;78.70
21276;BME280;36472;52.170;20.884;2024-03-02T11:43:48;100148.47;;;11.42;77.89
21276;BME280;36472;52.170;20.884;2024-03-02T11:46:17;100156.06;;;11.58;77.48
21276;BME280;36472;52.170;20.884;2024-03-02T11:48:53;100153.66;;;11.79;76.91
21276;BME280;36472;52.170;20.884;2024-03-02T11:51:23;100156.63;;;11.98;75.33
21276;BME280;36472;52.170;20.884;2024-03-02T11:53:55;100149.81;;;12.07;75.41
21276;BME280;36472;52.170;20.884;2024-03-02T11:56:27;100134.50;;;12.12;74.99
21276;BME280;36472;52.170;20.884;2024-03-02T11:58:57;100149.16;;;12.16;74.95
21276;BME280;36472;52.170;20.884;2024-03-02T12:06:03;100141.72;;;12.33;73.67
21276;BME280;36472;52.170;20.884;2024-03-02T12:08:33;100140.56;;;12.37;73.04
21276;BME280;36472;52.170;20.884;2024-03-02T12:11:03;100145.72;;;12.61;72.81
21276;BME280;36472;52.170;20.884;2024-03-02T12:13:34;100145.38;;;12.66;71.47
21276;BME280;36472;52.170;20.884;2024-03-02T13:36:23;100146.41;;;12.18;74.65
21276;BME280;36472;52.170;20.884;2024-03-02T13:38:52;100147.34;;;12.17;75.16
21276;BME280;36472;52.170;20.884;2024-03-02T13:41:21;100153.84;;;12.35;74.59
21276;BME280;36472;52.170;20.884;2024-03-02T13:43:50;100147.97;;;12.32;73.96
21276;BME280;36472;52.170;20.884;2024-03-02T13:46:21;100146.88;;;12.34;74.02
21276;BME280;36472;52.170;20.884;2024-03-02T13:48:52;100141.13;;;12.29;74.27
21276;BME280;36472;52.170;20.884;2024-03-02T13:55:57;100139.22;;;12.20;74.70
21276;BME280;36472;52.170;20.884;2024-03-02T14:02:59;100149.00;;;12.07;75.12
21276;BME280;36472;52.170;20.884;2024-03-02T14:05:29;100147.56;;;12.03;75.13
21276;BME280;36472;52.170;20.884;2024-03-02T14:07:58;100151.28;;;12.11;74.93
21276;BME280;36472;52.170;20.884;2024-03-02T14:10:28;100148.50;;;12.02;74.97
21276;BME280;36472;52.170;20.884;2024-03-02T14:12:58;100146.97;;;11.86;74.82
21276;BME280;36472;52.170;20.884;2024-03-02T14:15:27;100151.72;;;11.94;75.16
21276;BME280;36472;52.170;20.884;2024-03-02T14:22:30;100155.63;;;11.64;75.91
21276;BME280;36472;52.170;20.884;2024-03-02T14:25:01;100151.94;;;11.67;76.28
21276;BME280;36472;52.170;20.884;2024-03-02T14:27:30;100147.50;;;11.67;76.02
21276;BME280;36472;52.170;20.884;2024-03-02T14:30:21;100160.09;;;11.75;76.18
21276;BME280;36472;52.170;20.884;2024-03-02T14:32:50;100161.78;;;11.76;76.20
21276;BME280;36472;52.170;20.884;2024-03-02T14:35:19;100161.56;;;11.79;76.40
21276;BME280;36472;52.170;20.884;2024-03-02T14:37:51;100165.84;;;11.69;76.54
21276;BME280;36472;52.170;20.884;2024-03-02T14:40:21;100166.44;;;11.72;76.59
21276;BME280;36472;52.170;20.884;2024-03-02T14:42:53;100164.59;;;11.62;76.75
21276;BME280;36472;52.170;20.884;2024-03-02T14:45:24;100154.69;;;11.41;77.24
21276;BME280;36472;52.170;20.884;2024-03-02T14:47:57;100141.28;;;11.44;77.88
21276;BME280;36472;52.170;20.884;2024-03-02T14:50:27;100152.44;;;11.48;77.25
21276;BME280;36472;52.170;20.884;2024-03-02T14:52:57;100157.09;;;11.44;77.68
21276;BME280;36472;52.170;20.884;2024-03-02T14:55:26;100154.94;;;11.49;77.25
21276;BME280;36472;52.170;20.884;2024-03-02T14:57:55;100149.69;;;11.49;77.29
21276;BME280;36472;52.170;20.884;2024-03-02T15:00:26;100144.50;;;11.36;77.41
21276;BME280;36472;52.170;20.884;2024-03-02T15:02:55;100146.22;;;11.25;77.67
21276;BME280;36472;52.170;20.884;2024-03-02T15:05:24;100152.53;;;11.22;77.53
21276;BME280;36472;52.170;20.884;2024-03-02T15:07:54;100148.41;;;11.31;77.68
21276;BME280;36472;52.170;20.884;2024-03-02T15:10:25;100145.16;;;11.27;78.04
21276;BME280;36472;52.170;20.884;2024-03-02T15:12:55;100149.19;;;11.20;78.07
21276;BME280;36472;52.170;20.884;2024-03-02T15:15:26;100151.41;;;11.13;78.63